sensor_id;sensor_type;location;lat;lon;timestamp;temperature;humidity
21646;DHT22;10984;45.712;4.800;2022-09-09T00:01:34;16.90;99.90
21646;DHT22;10984;45.712;4.800;2022-09-09T00:07:06;16.80;99.90
21646;DHT22;10984;45.712;4.800;2022-09-09T00:21:36;16.70;99.90
21646;DHT22;10984;45.712;4.800;2022-09-09T00:27:06;16.70;99.90
21646;DHT22;10984;45.712;4.800;2022-09-09T00:32:35;16.70;99.90
21646;DHT22;10984;45.712;4.800;2022-09-09T00:44:01;16.60;99.90
21646;DHT22;10984;45.712;4.800;2022-09-09T00:52:37;16.50;99.90
21646;DHT22;10984;45.712;4.800;2022-09-09T00:58:09;16.50;99.90
21646;DHT22;10984;45.712;4.800;2022-09-09T01:06:36;16.40;99.90
21646;DHT22;10984;45.712;4.800;2022-09-09T01:15:17;16.30;99.90
21646;DHT22;10984;45.712;4.800;2022-09-09T01:18:05;16.20;99.90
21646;DHT22;10984;45.712;4.800;2022-09-09T01:28:53;15.90;99.90
21646;DHT22;10984;45.712;4.800;2022-09-09T01:31:39;15.80;99.90
21646;DHT22;10984;45.712;4.800;2022-09-09T01:34:25;15.90;99.90
21646;DHT22;10984;45.712;4.800;2022-09-09T01:39:42;15.80;99.90
21646;DHT22;10984;45.712;4.800;2022-09-09T01:42:10;15.80;99.90
21646;DHT22;10984;45.712;4.800;2022-09-09T01:44:37;15.80;99.90
21646;DHT22;10984;45.712;4.800;2022-09-09T01:47:04;15.80;99.90
21646;DHT22;10984;45.712;4.800;2022-09-09T01:49:30;15.80;99.90
21646;DHT22;10984;45.712;4.800;2022-09-09T01:51:56;15.70;99.90
21646;DHT22;10984;45.712;4.800;2022-09-09T01:54:24;15.70;99.90
21646;DHT22;10984;45.712;4.800;2022-09-09T02:00:13;15.70;99.90
21646;DHT22;10984;45.712;4.800;2022-09-09T02:05:53;15.60;99.90
21646;DHT22;10984;45.712;4.800;2022-09-09T02:08:25;15.50;99.90
21646;DHT22;10984;45.712;4.800;2022-09-09T02:20:04;15.30;99.90
21646;DHT22;10984;45.712;4.800;2022-09-09T02:22:33;15.30;99.90
21646;DHT22;10984;45.712;4.800;2022-09-09T02:25:02;15.20;99.90
21646;DHT22;10984;45.712;4.800;2022-09-09T02:27:28;15.20;99.90
21646;DHT22;10984;45.712;4.800;2022-09-09T02:29:56;15.10;99.90
21646;DHT22;10984;45.712;4.800;2022-09-09T02:32:24;15.10;99.90
21646;DHT22;10984;45.712;4.800;2022-09-09T02:35:09;15.10;99.90
21646;DHT22;10984;45.712;4.800;2022-09-09T02:37:38;15.10;99.90
21646;DHT22;10984;45.712;4.800;2022-09-09T02:40:06;15.10;99.90
21646;DHT22;10984;45.712;4.800;2022-09-09T02:42:37;15.20;99.90
21646;DHT22;10984;45.712;4.800;2022-09-09T02:45:04;15.20;99.90
21646;DHT22;10984;45.712;4.800;2022-09-09T02:47:35;15.20;99.90
21646;DHT22;10984;45.712;4.800;2022-09-09T02:53:24;15.10;99.90
21646;DHT22;10984;45.712;4.800;2022-09-09T02:55:58;15.10;99.90
21646;DHT22;10984;45.712;4.800;2022-09-09T02:58:25;15.10;99.90
21646;DHT22;10984;45.712;4.800;2022-09-09T03:00:52;15.00;99.90
21646;DHT22;10984;45.712;4.800;2022-09-09T03:03:19;15.00;99.90
21646;DHT22;10984;45.712;4.800;2022-09-09T03:05:46;15.00;99.90
21646;DHT22;10984;45.712;4.800;2022-09-09T03:08:12;15.00;99.90
21646;DHT22;10984;45.712;4.800;2022-09-09T03:10:39;15.00;99.90
21646;DHT22;10984;45.712;4.800;2022-09-09T03:13:04;15.00;99.90
21646;DHT22;10984;45.712;4.800;2022-09-09T03:15:31;15.00;99.90
21646;DHT22;10984;45.712;4.800;2022-09-09T03:17:58;15.10;99.90
21646;DHT22;10984;45.712;4.800;2022-09-09T03:20:28;15.10;99.90
21646;DHT22;10984;45.712;4.800;2022-09-09T03:22:55;15.10;99.90
21646;DHT22;10984;45.712;4.800;2022-09-09T03:25:22;15.10;99.90
21646;DHT22;10984;45.712;4.800;2022-09-09T03:27:50;15.10;99.90
21646;DHT22;10984;45.712;4.800;2022-09-09T03:30:15;15.10;99.90
21646;DHT22;10984;45.712;4.800;2022-09-09T03:32:41;15.10;99.90
21646;DHT22;10984;45.712;4.800;2022-09-09T03:35:07;15.10;99.90
21646;DHT22;10984;45.712;4.800;2022-09-09T03:37:33;15.10;99.90
21646;DHT22;10984;45.712;4.800;2022-09-09T03:39:59;15.10;99.90
21646;DHT22;10984;45.712;4.800;2022-09-09T03:42:25;15.20;99.90
21646;DHT22;10984;45.712;4.800;2022-09-09T03:44:51;15.20;99.90
21646;DHT22;10984;45.712;4.800;2022-09-09T03:47:18;15.10;99.90
21646;DHT22;10984;45.712;4.800;2022-09-09T03:49:44;15.10;99.90
21646;DHT22;10984;45.712;4.800;2022-09-09T03:52:10;15.00;99.90
21646;DHT22;10984;45.712;4.800;2022-09-09T03:54:35;15.00;99.90
21646;DHT22;10984;45.712;4.800;2022-09-09T03:57:02;14.90;99.90
21646;DHT22;10984;45.712;4.800;2022-09-09T03:59:28;14.80;99.90
21646;DHT22;10984;45.712;4.800;2022-09-09T04:01:54;14.80;99.90
21646;DHT22;10984;45.712;4.800;2022-09-09T04:04:20;14.70;99.90
21646;DHT22;10984;45.712;4.800;2022-09-09T04:06:46;14.60;99.90
21646;DHT22;10984;45.712;4.800;2022-09-09T04:09:14;14.60;99.90
21646;DHT22;10984;45.712;4.800;2022-09-09T04:11:39;14.70;99.90
21646;DHT22;10984;45.712;4.800;2022-09-09T04:14:05;14.60;99.90
21646;DHT22;10984;45.712;4.800;2022-09-09T04:16:33;14.60;99.90
21646;DHT22;10984;45.712;4.800;2022-09-09T04:18:59;14.60;99.90
21646;DHT22;10984;45.712;4.800;2022-09-09T04:21:25;14.60;99.90
21646;DHT22;10984;45.712;4.800;2022-09-09T04:23:51;14.50;99.90
21646;DHT22;10984;45.712;4.800;2022-09-09T04:26:17;14.50;99.90
21646;DHT22;10984;45.712;4.800;2022-09-09T04:28:43;14.40;99.90
21646;DHT22;10984;45.712;4.800;2022-09-09T04:31:14;14.50;99.90
21646;DHT22;10984;45.712;4.800;2022-09-09T04:33:40;14.50;99.90
21646;DHT22;10984;45.712;4.800;2022-09-09T04:36:07;14.50;99.90
21646;DHT22;10984;45.712;4.800;2022-09-09T04:38:32;14.50;99.90
21646;DHT22;10984;45.712;4.800;2022-09-09T04:40:58;14.60;99.90
21646;DHT22;10984;45.712;4.800;2022-09-09T04:43:24;14.60;99.90
21646;DHT22;10984;45.712;4.800;2022-09-09T04:45:51;14.50;99.90
21646;DHT22;10984;45.712;4.800;2022-09-09T04:48:18;14.50;99.90
21646;DHT22;10984;45.712;4.800;2022-09-09T04:50:44;14.40;99.90
21646;DHT22;10984;45.712;4.800;2022-09-09T04:53:09;14.30;99.90
21646;DHT22;10984;45.712;4.800;2022-09-09T04:55:35;14.20;99.90
21646;DHT22;10984;45.712;4.800;2022-09-09T04:58:19;14.10;99.90
21646;DHT22;10984;45.712;4.800;2022-09-09T05:00:47;14.10;99.90
21646;DHT22;10984;45.712;4.800;2022-09-09T05:03:12;14.00;99.90
21646;DHT22;10984;45.712;4.800;2022-09-09T05:05:38;14.00;99.90
21646;DHT22;10984;45.712;4.800;2022-09-09T05:08:05;13.90;99.90
21646;DHT22;10984;45.712;4.800;2022-09-09T05:10:32;13.90;99.90
21646;DHT22;10984;45.712;4.800;2022-09-09T05:12:57;13.90;99.90
21646;DHT22;10984;45.712;4.800;2022-09-09T05:15:23;13.80;99.90
21646;DHT22;10984;45.712;4.800;2022-09-09T05:17:49;13.80;99.90
21646;DHT22;10984;45.712;4.800;2022-09-09T05:20:15;13.80;99.90
21646;DHT22;10984;45.712;4.800;2022-09-09T05:22:40;13.80;99.90
21646;DHT22;10984;45.712;4.800;2022-09-09T05:25:06;13.80;99.90
21646;DHT22;10984;45.712;4.800;2022-09-09T05:27:34;13.90;99.90
21646;DHT22;10984;45.712;4.800;2022-09-09T05:29:59;13.90;99.90
21646;DHT22;10984;45.712;4.800;2022-09-09T05:32:25;14.00;99.90
21646;DHT22;10984;45.712;4.800;2022-09-09T05:34:51;14.00;99.90
21646;DHT22;10984;45.712;4.800;2022-09-09T05:37:18;14.10;99.90
21646;DHT22;10984;45.712;4.800;2022-09-09T05:39:44;14.20;99.90
21646;DHT22;10984;45.712;4.800;2022-09-09T05:42:10;14.30;99.90
21646;DHT22;10984;45.712;4.800;2022-09-09T05:44:35;14.50;99.90
21646;DHT22;10984;45.712;4.800;2022-09-09T05:47:01;14.60;99.90
21646;DHT22;10984;45.712;4.800;2022-09-09T05:49:26;14.70;99.90
21646;DHT22;10984;45.712;4.800;2022-09-09T05:51:52;14.80;99.90
21646;DHT22;10984;45.712;4.800;2022-09-09T05:54:18;15.00;99.90
21646;DHT22;10984;45.712;4.800;2022-09-09T05:56:44;15.10;99.90
21646;DHT22;10984;45.712;4.800;2022-09-09T05:59:10;15.20;99.90
21646;DHT22;10984;45.712;4.800;2022-09-09T06:01:37;15.40;99.90
21646;DHT22;10984;45.712;4.800;2022-09-09T06:04:21;15.50;99.90
21646;DHT22;10984;45.712;4.800;2022-09-09T06:06:47;15.70;99.90
21646;DHT22;10984;45.712;4.800;2022-09-09T06:09:14;15.80;99.90
21646;DHT22;10984;45.712;4.800;2022-09-09T06:11:42;16.00;99.90
21646;DHT22;10984;45.712;4.800;2022-09-09T06:14:08;16.20;99.90
21646;DHT22;10984;45.712;4.800;2022-09-09T06:16:34;16.40;99.90
21646;DHT22;10984;45.712;4.800;2022-09-09T06:19:03;16.50;99.90
21646;DHT22;10984;45.712;4.800;2022-09-09T06:21:30;16.70;99.90
21646;DHT22;10984;45.712;4.800;2022-09-09T06:23:56;16.80;99.90
21646;DHT22;10984;45.712;4.800;2022-09-09T06:26:24;16.80;99.90
21646;DHT22;10984;45.712;4.800;2022-09-09T06:28:52;16.80;99.90
21646;DHT22;10984;45.712;4.800;2022-09-09T06:31:20;16.90;99.90
21646;DHT22;10984;45.712;4.800;2022-09-09T06:34:07;17.00;99.90
21646;DHT22;10984;45.712;4.800;2022-09-09T06:36:35;17.10;99.90
21646;DHT22;10984;45.712;4.800;2022-09-09T06:39:02;17.20;99.90
21646;DHT22;10984;45.712;4.800;2022-09-09T06:41:30;17.20;99.90
21646;DHT22;10984;45.712;4.800;2022-09-09T06:43:56;17.30;99.90
21646;DHT22;10984;45.712;4.800;2022-09-09T06:46:24;17.50;99.90
21646;DHT22;10984;45.712;4.800;2022-09-09T06:49:09;17.70;99.90
21646;DHT22;10984;45.712;4.800;2022-09-09T06:51:36;18.00;99.90
21646;DHT22;10984;45.712;4.800;2022-09-09T06:54:08;18.10;99.90
21646;DHT22;10984;45.712;4.800;2022-09-09T06:56:36;18.20;99.90
21646;DHT22;10984;45.712;4.800;2022-09-09T06:59:04;18.30;99.90
21646;DHT22;10984;45.712;4.800;2022-09-09T07:01:49;18.30;99.90
21646;DHT22;10984;45.712;4.800;2022-09-09T07:04:17;18.40;99.90
21646;DHT22;10984;45.712;4.800;2022-09-09T07:06:44;18.60;99.90
21646;DHT22;10984;45.712;4.800;2022-09-09T07:09:13;18.70;99.90
21646;DHT22;10984;45.712;4.800;2022-09-09T07:11:44;18.80;99.90
21646;DHT22;10984;45.712;4.800;2022-09-09T07:14:11;19.00;99.90
21646;DHT22;10984;45.712;4.800;2022-09-09T07:16:55;19.20;99.90
21646;DHT22;10984;45.712;4.800;2022-09-09T07:19:21;19.50;99.90
21646;DHT22;10984;45.712;4.800;2022-09-09T07:21:46;19.70;99.90
21646;DHT22;10984;45.712;4.800;2022-09-09T07:24:12;20.00;99.90
21646;DHT22;10984;45.712;4.800;2022-09-09T07:26:39;20.20;99.90
21646;DHT22;10984;45.712;4.800;2022-09-09T07:29:04;20.40;99.90
21646;DHT22;10984;45.712;4.800;2022-09-09T07:31:32;20.60;99.90
21646;DHT22;10984;45.712;4.800;2022-09-09T07:33:59;20.70;99.90
21646;DHT22;10984;45.712;4.800;2022-09-09T07:39:14;20.90;99.90
21646;DHT22;10984;45.712;4.800;2022-09-09T07:41:58;21.00;99.90
21646;DHT22;10984;45.712;4.800;2022-09-09T07:44:25;21.20;99.90
21646;DHT22;10984;45.712;4.800;2022-09-09T07:46:52;21.30;99.90
21646;DHT22;10984;45.712;4.800;2022-09-09T07:49:17;21.30;99.90
21646;DHT22;10984;45.712;4.800;2022-09-09T07:51:46;21.40;99.90
21646;DHT22;10984;45.712;4.800;2022-09-09T07:54:15;21.60;99.90
21646;DHT22;10984;45.712;4.800;2022-09-09T07:56:42;21.70;99.90
21646;DHT22;10984;45.712;4.800;2022-09-09T07:59:08;21.80;99.90
21646;DHT22;10984;45.712;4.800;2022-09-09T08:01:37;21.80;99.90
21646;DHT22;10984;45.712;4.800;2022-09-09T08:04:07;21.80;99.90
21646;DHT22;10984;45.712;4.800;2022-09-09T08:06:54;21.80;99.90
21646;DHT22;10984;45.712;4.800;2022-09-09T08:09:21;22.00;99.90
21646;DHT22;10984;45.712;4.800;2022-09-09T08:11:47;22.10;99.90
21646;DHT22;10984;45.712;4.800;2022-09-09T08:14:13;22.10;99.90
21646;DHT22;10984;45.712;4.800;2022-09-09T08:16:43;22.20;99.90
21646;DHT22;10984;45.712;4.800;2022-09-09T08:19:09;22.30;99.90
21646;DHT22;10984;45.712;4.800;2022-09-09T08:21:37;22.40;99.90
21646;DHT22;10984;45.712;4.800;2022-09-09T08:24:04;22.40;99.90
21646;DHT22;10984;45.712;4.800;2022-09-09T08:26:32;22.50;99.90
21646;DHT22;10984;45.712;4.800;2022-09-09T08:29:00;22.60;99.90
21646;DHT22;10984;45.712;4.800;2022-09-09T08:31:48;22.60;99.90
21646;DHT22;10984;45.712;4.800;2022-09-09T08:34:14;22.80;99.90
21646;DHT22;10984;45.712;4.800;2022-09-09T08:36:59;22.80;99.90
21646;DHT22;10984;45.712;4.800;2022-09-09T08:39:24;22.80;99.90
21646;DHT22;10984;45.712;4.800;2022-09-09T08:42:12;22.90;99.90
21646;DHT22;10984;45.712;4.800;2022-09-09T08:50:49;23.10;99.90
21646;DHT22;10984;45.712;4.800;2022-09-09T08:53:38;23.30;99.90
21646;DHT22;10984;45.712;4.800;2022-09-09T08:56:24;23.50;99.90
21646;DHT22;10984;45.712;4.800;2022-09-09T08:59:09;23.60;99.90
21646;DHT22;10984;45.712;4.800;2022-09-09T09:19:05;23.40;99.90
21646;DHT22;10984;45.712;4.800;2022-09-09T09:27:31;23.00;99.90
21646;DHT22;10984;45.712;4.800;2022-09-09T09:29:59;23.10;99.90
21646;DHT22;10984;45.712;4.800;2022-09-09T09:32:26;23.20;99.90
21646;DHT22;10984;45.712;4.800;2022-09-09T09:34:56;23.40;99.90
21646;DHT22;10984;45.712;4.800;2022-09-09T09:37:41;23.40;99.90
21646;DHT22;10984;45.712;4.800;2022-09-09T09:40:27;23.50;99.90
21646;DHT22;10984;45.712;4.800;2022-09-09T09:45:55;23.50;99.90
21646;DHT22;10984;45.712;4.800;2022-09-09T09:48:24;23.60;99.90
21646;DHT22;10984;45.712;4.800;2022-09-09T09:53:38;23.60;99.90
21646;DHT22;10984;45.712;4.800;2022-09-09T09:56:06;23.70;99.90
21646;DHT22;10984;45.712;4.800;2022-09-09T09:58:52;23.70;99.90
21646;DHT22;10984;45.712;4.800;2022-09-09T10:01:30;23.80;99.90
21646;DHT22;10984;45.712;4.800;2022-09-09T10:04:23;23.70;99.90
21646;DHT22;10984;45.712;4.800;2022-09-09T10:06:49;23.50;99.90
21646;DHT22;10984;45.712;4.800;2022-09-09T10:09:34;23.60;99.90
21646;DHT22;10984;45.712;4.800;2022-09-09T10:41:25;23.90;99.90
21646;DHT22;10984;45.712;4.800;2022-09-09T10:57:49;24.10;99.90
21646;DHT22;10984;45.712;4.800;2022-09-09T11:03:03;24.30;99.90
21646;DHT22;10984;45.712;4.800;2022-09-09T11:08:35;24.10;99.90
21646;DHT22;10984;45.712;4.800;2022-09-09T11:17:09;23.80;99.90
21646;DHT22;10984;45.712;4.800;2022-09-09T11:43:18;25.40;99.90
21646;DHT22;10984;45.712;4.800;2022-09-09T11:48:58;25.30;99.90
21646;DHT22;10984;45.712;4.800;2022-09-09T11:51:26;25.50;99.90
21646;DHT22;10984;45.712;4.800;2022-09-09T11:59:49;25.70;99.90
21646;DHT22;10984;45.712;4.800;2022-09-09T12:02:34;25.80;99.90
21646;DHT22;10984;45.712;4.800;2022-09-09T12:05:03;26.00;99.90
21646;DHT22;10984;45.712;4.800;2022-09-09T12:07:51;26.20;99.90
21646;DHT22;10984;45.712;4.800;2022-09-09T12:10:38;26.10;99.90
21646;DHT22;10984;45.712;4.800;2022-09-09T12:13:25;25.90;99.90
21646;DHT22;10984;45.712;4.800;2022-09-09T12:15:53;25.50;99.90
21646;DHT22;10984;45.712;4.800;2022-09-09T12:18:39;25.30;99.90
21646;DHT22;10984;45.712;4.800;2022-09-09T12:24:29;25.00;99.90
21646;DHT22;10984;45.712;4.800;2022-09-09T12:27:06;24.80;99.90
21646;DHT22;10984;45.712;4.800;2022-09-09T12:32:27;24.80;99.90
21646;DHT22;10984;45.712;4.800;2022-09-09T12:37:40;25.10;99.90
21646;DHT22;10984;45.712;4.800;2022-09-09T12:40:27;25.30;99.90
21646;DHT22;10984;45.712;4.800;2022-09-09T12:42:53;25.40;99.90
21646;DHT22;10984;45.712;4.800;2022-09-09T12:45:39;25.50;99.90
21646;DHT22;10984;45.712;4.800;2022-09-09T12:48:08;25.60;99.90
21646;DHT22;10984;45.712;4.800;2022-09-09T12:50:43;25.80;99.90
21646;DHT22;10984;45.712;4.800;2022-09-09T12:58:47;25.30;99.90
21646;DHT22;10984;45.712;4.800;2022-09-09T13:01:32;25.20;99.90
21646;DHT22;10984;45.712;4.800;2022-09-09T13:03:59;25.20;99.90
21646;DHT22;10984;45.712;4.800;2022-09-09T13:06:27;25.20;99.90
21646;DHT22;10984;45.712;4.800;2022-09-09T13:08:54;25.00;99.90
21646;DHT22;10984;45.712;4.800;2022-09-09T13:20:01;25.60;99.90
21646;DHT22;10984;45.712;4.800;2022-09-09T13:22:47;26.00;99.90
21646;DHT22;10984;45.712;4.800;2022-09-09T13:25:32;26.20;99.90
21646;DHT22;10984;45.712;4.800;2022-09-09T13:28:02;26.50;99.90
21646;DHT22;10984;45.712;4.800;2022-09-09T13:33:35;26.60;99.90
21646;DHT22;10984;45.712;4.800;2022-09-09T13:39:16;26.10;99.90
21646;DHT22;10984;45.712;4.800;2022-09-09T13:41:44;26.00;99.90
21646;DHT22;10984;45.712;4.800;2022-09-09T13:47:33;25.80;99.90
21646;DHT22;10984;45.712;4.800;2022-09-09T13:50:21;25.50;99.90
21646;DHT22;10984;45.712;4.800;2022-09-09T13:52:48;25.30;99.90
21646;DHT22;10984;45.712;4.800;2022-09-09T13:55:17;25.30;99.90
21646;DHT22;10984;45.712;4.800;2022-09-09T13:58:02;25.50;99.90
21646;DHT22;10984;45.712;4.800;2022-09-09T14:00:47;25.70;99.90
21646;DHT22;10984;45.712;4.800;2022-09-09T14:03:13;25.70;99.90
21646;DHT22;10984;45.712;4.800;2022-09-09T14:05:39;25.80;99.90
21646;DHT22;10984;45.712;4.800;2022-09-09T14:08:06;25.80;99.90
21646;DHT22;10984;45.712;4.800;2022-09-09T14:10:33;25.80;99.90
21646;DHT22;10984;45.712;4.800;2022-09-09T14:13:02;25.70;99.90
21646;DHT22;10984;45.712;4.800;2022-09-09T14:15:28;25.70;99.90
21646;DHT22;10984;45.712;4.800;2022-09-09T14:17:55;25.40;99.90
21646;DHT22;10984;45.712;4.800;2022-09-09T14:20:20;25.40;99.90
21646;DHT22;10984;45.712;4.800;2022-09-09T14:22:46;25.30;99.90
21646;DHT22;10984;45.712;4.800;2022-09-09T14:25:12;25.30;99.90
21646;DHT22;10984;45.712;4.800;2022-09-09T14:27:56;25.40;99.90
21646;DHT22;10984;45.712;4.800;2022-09-09T14:30:22;25.20;99.90
21646;DHT22;10984;45.712;4.800;2022-09-09T14:32:47;25.40;99.90
21646;DHT22;10984;45.712;4.800;2022-09-09T14:35:13;25.50;99.90
21646;DHT22;10984;45.712;4.800;2022-09-09T14:37:39;25.70;99.90
21646;DHT22;10984;45.712;4.800;2022-09-09T14:40:05;25.80;99.90
21646;DHT22;10984;45.712;4.800;2022-09-09T14:42:31;25.80;99.90
21646;DHT22;10984;45.712;4.800;2022-09-09T14:44:57;25.70;99.90
21646;DHT22;10984;45.712;4.800;2022-09-09T14:47:22;25.70;99.90
21646;DHT22;10984;45.712;4.800;2022-09-09T14:49:48;25.70;99.90
21646;DHT22;10984;45.712;4.800;2022-09-09T14:52:15;25.70;99.90
21646;DHT22;10984;45.712;4.800;2022-09-09T14:54:41;25.60;99.90
21646;DHT22;10984;45.712;4.800;2022-09-09T14:57:07;25.50;99.90
21646;DHT22;10984;45.712;4.800;2022-09-09T14:59:32;25.40;99.90
21646;DHT22;10984;45.712;4.800;2022-09-09T15:01:59;25.30;99.90
21646;DHT22;10984;45.712;4.800;2022-09-09T15:04:29;25.20;99.90
21646;DHT22;10984;45.712;4.800;2022-09-09T15:06:55;25.20;99.90
21646;DHT22;10984;45.712;4.800;2022-09-09T15:09:20;25.20;99.90
21646;DHT22;10984;45.712;4.800;2022-09-09T15:11:46;25.10;99.90
21646;DHT22;10984;45.712;4.800;2022-09-09T15:14:12;25.30;99.90
21646;DHT22;10984;45.712;4.800;2022-09-09T15:16:38;25.40;99.90
21646;DHT22;10984;45.712;4.800;2022-09-09T15:19:04;25.50;99.90
21646;DHT22;10984;45.712;4.800;2022-09-09T15:21:32;25.70;99.90
21646;DHT22;10984;45.712;4.800;2022-09-09T15:23:58;25.70;99.90
21646;DHT22;10984;45.712;4.800;2022-09-09T15:26:25;25.80;99.90
21646;DHT22;10984;45.712;4.800;2022-09-09T15:28:51;25.80;99.90
21646;DHT22;10984;45.712;4.800;2022-09-09T15:34:05;25.70;99.90
21646;DHT22;10984;45.712;4.800;2022-09-09T15:38:58;25.50;99.90
21646;DHT22;10984;45.712;4.800;2022-09-09T15:41:25;25.30;99.90
21646;DHT22;10984;45.712;4.800;2022-09-09T15:43:52;25.20;99.90
21646;DHT22;10984;45.712;4.800;2022-09-09T15:46:38;25.10;99.90
21646;DHT22;10984;45.712;4.800;2022-09-09T15:49:06;25.00;99.90
21646;DHT22;10984;45.712;4.800;2022-09-09T15:51:33;25.00;99.90
21646;DHT22;10984;45.712;4.800;2022-09-09T15:53:59;24.90;99.90
21646;DHT22;10984;45.712;4.800;2022-09-09T15:56:26;24.90;99.90
21646;DHT22;10984;45.712;4.800;2022-09-09T15:59:02;24.70;99.90
21646;DHT22;10984;45.712;4.800;2022-09-09T16:01:29;24.60;99.90
21646;DHT22;10984;45.712;4.800;2022-09-09T16:03:57;24.50;99.90
21646;DHT22;10984;45.712;4.800;2022-09-09T16:06:24;24.40;99.90
21646;DHT22;10984;45.712;4.800;2022-09-09T16:08:52;24.30;99.90
21646;DHT22;10984;45.712;4.800;2022-09-09T16:11:37;24.20;99.90
21646;DHT22;10984;45.712;4.800;2022-09-09T16:14:03;24.20;99.90
21646;DHT22;10984;45.712;4.800;2022-09-09T16:16:30;24.20;99.90
21646;DHT22;10984;45.712;4.800;2022-09-09T16:18:58;24.20;99.90
21646;DHT22;10984;45.712;4.800;2022-09-09T16:21:27;24.20;99.90
21646;DHT22;10984;45.712;4.800;2022-09-09T16:24:30;24.20;99.90
21646;DHT22;10984;45.712;4.800;2022-09-09T16:26:56;24.30;99.90
21646;DHT22;10984;45.712;4.800;2022-09-09T16:29:23;24.30;99.90
21646;DHT22;10984;45.712;4.800;2022-09-09T16:31:49;24.40;99.90
21646;DHT22;10984;45.712;4.800;2022-09-09T16:34:16;24.30;99.90
21646;DHT22;10984;45.712;4.800;2022-09-09T16:36:43;24.30;99.90
21646;DHT22;10984;45.712;4.800;2022-09-09T16:39:11;24.30;99.90
21646;DHT22;10984;45.712;4.800;2022-09-09T16:41:38;24.10;99.90
21646;DHT22;10984;45.712;4.800;2022-09-09T16:44:07;23.90;99.90
21646;DHT22;10984;45.712;4.800;2022-09-09T16:46:35;23.70;99.90
21646;DHT22;10984;45.712;4.800;2022-09-09T16:49:03;23.50;99.90
21646;DHT22;10984;45.712;4.800;2022-09-09T16:51:48;23.40;99.90
21646;DHT22;10984;45.712;4.800;2022-09-09T16:54:16;23.20;99.90
21646;DHT22;10984;45.712;4.800;2022-09-09T16:56:44;23.10;99.90
21646;DHT22;10984;45.712;4.800;2022-09-09T16:59:12;23.00;99.90
21646;DHT22;10984;45.712;4.800;2022-09-09T17:01:40;22.90;99.90
21646;DHT22;10984;45.712;4.800;2022-09-09T17:04:10;22.80;99.90
21646;DHT22;10984;45.712;4.800;2022-09-09T17:06:36;22.80;99.90
21646;DHT22;10984;45.712;4.800;2022-09-09T17:09:07;22.70;99.90
21646;DHT22;10984;45.712;4.800;2022-09-09T17:11:34;22.60;99.90
21646;DHT22;10984;45.712;4.800;2022-09-09T17:14:00;22.50;99.90
21646;DHT22;10984;45.712;4.800;2022-09-09T17:16:28;22.50;99.90
21646;DHT22;10984;45.712;4.800;2022-09-09T17:18:56;22.40;99.90
21646;DHT22;10984;45.712;4.800;2022-09-09T17:21:23;22.40;99.90
21646;DHT22;10984;45.712;4.800;2022-09-09T17:23:51;22.30;99.90
21646;DHT22;10984;45.712;4.800;2022-09-09T17:26:19;22.30;99.90
21646;DHT22;10984;45.712;4.800;2022-09-09T17:28:45;22.20;99.90
21646;DHT22;10984;45.712;4.800;2022-09-09T17:31:13;22.20;99.90
21646;DHT22;10984;45.712;4.800;2022-09-09T17:33:44;22.00;99.90
21646;DHT22;10984;45.712;4.800;2022-09-09T17:38:40;21.90;99.90
21646;DHT22;10984;45.712;4.800;2022-09-09T17:41:13;21.80;99.90
21646;DHT22;10984;45.712;4.800;2022-09-09T17:43:40;21.70;99.90
21646;DHT22;10984;45.712;4.800;2022-09-09T17:48:52;21.60;99.90
21646;DHT22;10984;45.712;4.800;2022-09-09T17:51:21;21.60;99.90
21646;DHT22;10984;45.712;4.800;2022-09-09T17:54:08;21.70;99.90
21646;DHT22;10984;45.712;4.800;2022-09-09T17:56:34;21.80;99.90
21646;DHT22;10984;45.712;4.800;2022-09-09T17:59:01;21.80;99.90
21646;DHT22;10984;45.712;4.800;2022-09-09T18:01:30;21.80;99.90
21646;DHT22;10984;45.712;4.800;2022-09-09T18:03:58;21.70;99.90
21646;DHT22;10984;45.712;4.800;2022-09-09T18:06:27;21.60;99.90
21646;DHT22;10984;45.712;4.800;2022-09-09T18:08:55;21.50;99.90
21646;DHT22;10984;45.712;4.800;2022-09-09T18:11:23;21.50;99.90
21646;DHT22;10984;45.712;4.800;2022-09-09T18:13:52;21.30;99.90
21646;DHT22;10984;45.712;4.800;2022-09-09T18:16:18;21.20;99.90
21646;DHT22;10984;45.712;4.800;2022-09-09T18:18:45;21.10;99.90
21646;DHT22;10984;45.712;4.800;2022-09-09T18:21:11;20.90;99.90
21646;DHT22;10984;45.712;4.800;2022-09-09T18:23:39;20.80;99.90
21646;DHT22;10984;45.712;4.800;2022-09-09T18:26:24;20.70;99.90
21646;DHT22;10984;45.712;4.800;2022-09-09T18:28:53;20.50;99.90
21646;DHT22;10984;45.712;4.800;2022-09-09T18:31:20;20.40;99.90
21646;DHT22;10984;45.712;4.800;2022-09-09T18:34:07;20.30;99.90
21646;DHT22;10984;45.712;4.800;2022-09-09T18:39:25;20.20;99.90
21646;DHT22;10984;45.712;4.800;2022-09-09T18:41:54;20.20;99.90
21646;DHT22;10984;45.712;4.800;2022-09-09T18:44:23;20.10;99.90
21646;DHT22;10984;45.712;4.800;2022-09-09T18:46:51;20.00;99.90
21646;DHT22;10984;45.712;4.800;2022-09-09T18:49:19;19.90;99.90
21646;DHT22;10984;45.712;4.800;2022-09-09T18:51:45;19.80;99.90
21646;DHT22;10984;45.712;4.800;2022-09-09T18:54:30;19.80;99.90
21646;DHT22;10984;45.712;4.800;2022-09-09T18:56:57;19.70;99.90
21646;DHT22;10984;45.712;4.800;2022-09-09T18:59:25;19.70;99.90
21646;DHT22;10984;45.712;4.800;2022-09-09T19:01:53;19.60;99.90
21646;DHT22;10984;45.712;4.800;2022-09-09T19:04:20;19.50;99.90
21646;DHT22;10984;45.712;4.800;2022-09-09T19:06:47;19.30;99.90
21646;DHT22;10984;45.712;4.800;2022-09-09T19:09:15;19.30;99.90
21646;DHT22;10984;45.712;4.800;2022-09-09T19:11:41;19.20;99.90
21646;DHT22;10984;45.712;4.800;2022-09-09T19:14:11;19.10;99.90
21646;DHT22;10984;45.712;4.800;2022-09-09T19:16:37;19.00;99.90
21646;DHT22;10984;45.712;4.800;2022-09-09T19:19:07;18.90;99.90
21646;DHT22;10984;45.712;4.800;2022-09-09T19:21:35;18.90;99.90
21646;DHT22;10984;45.712;4.800;2022-09-09T19:24:10;18.90;99.90
21646;DHT22;10984;45.712;4.800;2022-09-09T19:26:39;18.90;99.90
21646;DHT22;10984;45.712;4.800;2022-09-09T19:29:24;18.80;99.90
21646;DHT22;10984;45.712;4.800;2022-09-09T19:31:52;18.80;99.90
21646;DHT22;10984;45.712;4.800;2022-09-09T19:34:20;18.80;99.90
21646;DHT22;10984;45.712;4.800;2022-09-09T19:36:46;18.70;99.90
21646;DHT22;10984;45.712;4.800;2022-09-09T19:39:12;18.70;99.90
21646;DHT22;10984;45.712;4.800;2022-09-09T19:41:38;18.70;99.90
21646;DHT22;10984;45.712;4.800;2022-09-09T19:44:06;18.60;99.90
21646;DHT22;10984;45.712;4.800;2022-09-09T19:46:35;18.60;99.90
21646;DHT22;10984;45.712;4.800;2022-09-09T19:49:02;18.50;99.90
21646;DHT22;10984;45.712;4.800;2022-09-09T19:51:30;18.40;99.90
21646;DHT22;10984;45.712;4.800;2022-09-09T19:54:14;18.40;99.90
21646;DHT22;10984;45.712;4.800;2022-09-09T19:56:41;18.20;99.90
21646;DHT22;10984;45.712;4.800;2022-09-09T19:59:08;18.10;99.90